Time;durP1;ratioP1;P1;durP2;ratioP2;P2;SDS_P1;SDS_P2;PMS_P1;PMS_P2;Temp;Humidity;BMP_temperature;BMP_pressure;BME280_temperature;BME280_humidity;BME280_pressure;Samples;Min_cycle;Max_cycle;Signal;HPM_P1;HPM_P2
2021/10/24 00:00:12;;;;;;;14.63;8.10;;;;;;;;;;5139979;27;20034;-74
2021/10/24 00:02:39;;;;;;;14.57;8.02;;;;;;;;;;5136558;27;20079;-74
2021/10/24 00:05:06;;;;;;;11.23;8.07;;;;;;;;;;5136415;27;20015;-75
2021/10/24 00:07:33;;;;;;;13.20;7.75;;;;;;;;;;5134157;27;20351;-74
2021/10/24 00:09:59;;;;;;;14.20;8.85;;;;;;;;;;5135267;27;20035;-74
2021/10/24 00:12:25;;;;;;;12.73;7.78;;;;;;;;;;5139099;27;20023;-74
2021/10/24 00:14:52;;;;;;;12.63;8.23;;;;;;;;;;5129586;27;20023;-74
2021/10/24 00:17:18;;;;;;;20.90;9.93;;;;;;;;;;5137234;27;20027;-74
2021/10/24 00:19:45;;;;;;;16.63;10.75;;;;;;;;;;5141765;27;20045;-74
2021/10/24 00:22:11;;;;;;;18.00;10.50;;;;;;;;;;5136147;27;20046;-75
2021/10/24 00:24:38;;;;;;;19.77;10.77;;;;;;;;;;5133308;27;20027;-74
2021/10/24 00:27:04;;;;;;;18.70;10.98;;;;;;;;;;5135131;27;20464;-74
2021/10/24 00:29:30;;;;;;;16.33;10.13;;;;;;;;;;5140587;27;20142;-74
2021/10/24 00:31:57;;;;;;;19.02;10.88;;;;;;;;;;5137623;27;20288;-74
2021/10/24 00:34:23;;;;;;;18.55;11.15;;;;;;;;;;5135448;27;20098;-74
2021/10/24 00:36:49;;;;;;;22.05;11.27;;;;;;;;;;5138595;27;20026;-74
2021/10/24 00:39:15;;;;;;;20.65;12.13;;;;;;;;;;5141831;27;20638;-74
2021/10/24 00:41:43;;;;;;;16.48;11.07;;;;;;;;;;5138147;27;20037;-74
2021/10/24 00:44:20;;;;;;;16.30;10.90;;;;;;;;;;5139076;27;20068;-73
2021/10/24 00:46:47;;;;;;;17.10;11.50;;;;;;;;;;5139959;27;20046;-73
2021/10/24 00:49:13;;;;;;;19.10;11.20;;;;;;;;;;5140713;27;20026;-74
2021/10/24 00:51:39;;;;;;;22.15;14.45;;;;;;;;;;5140208;27;20026;-74
2021/10/24 00:54:05;;;;;;;24.45;13.15;;;;;;;;;;5142183;27;20474;-73
2021/10/24 00:56:32;;;;;;;22.38;14.27;;;;;;;;;;5137343;27;20030;-73
2021/10/24 00:58:58;;;;;;;21.85;12.23;;;;;;;;;;5140102;27;20344;-74
2021/10/24 01:01:24;;;;;;;16.88;11.55;;;;;;;;;;5146182;27;20060;-73
2021/10/24 01:03:50;;;;;;;15.20;11.35;;;;;;;;;;5139263;27;20493;-73
2021/10/24 01:06:16;;;;;;;18.23;10.57;;;;;;;;;;5141034;27;20493;-74
2021/10/24 01:08:43;;;;;;;16.48;10.40;;;;;;;;;;5139822;27;20034;-73
2021/10/24 01:11:09;;;;;;;22.10;11.02;;;;;;;;;;5142942;27;20019;-74
2021/10/24 01:13:35;;;;;;;19.17;9.82;;;;;;;;;;5138249;27;20034;-73
2021/10/24 01:16:10;;;;;;;18.23;10.13;;;;;;;;;;5142044;27;20022;-73
2021/10/24 01:18:36;;;;;;;14.60;10.05;;;;;;;;;;5139704;27;20371;-73
2021/10/24 01:21:03;;;;;;;13.80;10.00;;;;;;;;;;5138855;27;20026;-73
2021/10/24 01:23:29;;;;;;;23.02;10.38;;;;;;;;;;5145433;27;20506;-73
2021/10/24 01:25:55;;;;;;;19.50;9.48;;;;;;;;;;5138573;27;20023;-73
2021/10/24 01:28:21;;;;;;;19.20;10.68;;;;;;;;;;5146006;27;20027;-74
2021/10/24 01:30:47;;;;;;;17.75;9.90;;;;;;;;;;5140028;27;20019;-73
2021/10/24 01:33:14;;;;;;;18.48;9.57;;;;;;;;;;5139267;27;20394;-73
2021/10/24 01:35:57;;;;;;;21.45;10.40;;;;;;;;;;5142313;27;20019;-73
2021/10/24 01:38:24;;;;;;;16.63;9.38;;;;;;;;;;5140206;27;20027;-73
2021/10/24 01:40:50;;;;;;;17.63;10.18;;;;;;;;;;5142110;27;20102;-73
2021/10/24 01:43:18;;;;;;;16.08;10.00;;;;;;;;;;5139399;27;20150;-73
2021/10/24 01:45:44;;;;;;;15.73;9.63;;;;;;;;;;5140294;27;20018;-73
2021/10/24 01:48:10;;;;;;;16.02;9.80;;;;;;;;;;5137200;27;20035;-73
2021/10/24 01:50:37;;;;;;;14.68;9.77;;;;;;;;;;5142640;27;20018;-73
2021/10/24 01:53:03;;;;;;;15.00;9.88;;;;;;;;;;5138475;27;20029;-73
2021/10/24 01:55:31;;;;;;;18.45;9.63;;;;;;;;;;5145676;27;20019;-73
2021/10/24 01:57:57;;;;;;;15.77;9.32;;;;;;;;;;5138436;27;20027;-73
2021/10/24 02:00:24;;;;;;;16.98;10.18;;;;;;;;;;5141947;27;20058;-73
2021/10/24 02:02:50;;;;;;;13.32;9.73;;;;;;;;;;5141954;27;20034;-73
2021/10/24 02:05:16;;;;;;;19.50;10.07;;;;;;;;;;5141552;27;20473;-73
2021/10/24 02:07:42;;;;;;;17.90;10.18;;;;;;;;;;5144134;27;20034;-73
2021/10/24 02:10:10;;;;;;;14.32;9.73;;;;;;;;;;5137191;27;20386;-73
2021/10/24 02:12:37;;;;;;;20.55;10.50;;;;;;;;;;5137801;27;20038;-73
2021/10/24 02:15:03;;;;;;;16.38;10.57;;;;;;;;;;5138051;27;20027;-73
2021/10/24 02:17:30;;;;;;;23.55;11.27;;;;;;;;;;5141235;27;20041;-73
2021/10/24 02:19:56;;;;;;;15.95;10.07;;;;;;;;;;5140351;27;20079;-73
2021/10/24 02:22:22;;;;;;;17.13;9.82;;;;;;;;;;5140331;27;20035;-73
2021/10/24 02:24:48;;;;;;;16.55;10.18;;;;;;;;;;5140806;27;20026;-73
2021/10/24 02:27:15;;;;;;;15.60;10.57;;;;;;;;;;5139802;27;20026;-73
2021/10/24 02:29:41;;;;;;;17.73;10.38;;;;;;;;;;5143643;27;20027;-74
2021/10/24 02:32:07;;;;;;;21.58;10.60;;;;;;;;;;5140332;27;20035;-73
2021/10/24 02:34:33;;;;;;;17.50;10.95;;;;;;;;;;5143646;27;20027;-73
2021/10/24 02:36:59;;;;;;;22.00;10.88;;;;;;;;;;5138972;27;20030;-73
2021/10/24 02:39:26;;;;;;;23.25;11.20;;;;;;;;;;5141478;27;20034;-73
2021/10/24 02:41:52;;;;;;;16.85;10.65;;;;;;;;;;5140727;27;20038;-74
2021/10/24 02:44:18;;;;;;;15.93;9.82;;;;;;;;;;5142233;27;20027;-73
2021/10/24 02:46:44;;;;;;;21.98;10.88;;;;;;;;;;5142329;27;20811;-73
2021/10/24 02:49:11;;;;;;;21.75;11.05;;;;;;;;;;5139213;27;20026;-73
2021/10/24 02:51:37;;;;;;;20.27;10.57;;;;;;;;;;5139975;27;20046;-73
2021/10/24 02:54:03;;;;;;;16.02;10.90;;;;;;;;;;5135208;27;20023;-74
2021/10/24 02:56:30;;;;;;;16.05;9.68;;;;;;;;;;5138724;27;20688;-74
2021/10/24 02:58:56;;;;;;;20.00;10.82;;;;;;;;;;5134735;27;20030;-74
2021/10/24 03:01:22;;;;;;;15.38;9.82;;;;;;;;;;5139251;27;20479;-74
2021/10/24 03:03:48;;;;;;;20.50;10.95;;;;;;;;;;5135902;27;20042;-74
2021/10/24 03:06:14;;;;;;;20.52;10.48;;;;;;;;;;5137698;27;20027;-74
2021/10/24 03:08:40;;;;;;;16.67;10.95;;;;;;;;;;5137039;27;20042;-74
2021/10/24 03:11:07;;;;;;;19.02;11.30;;;;;;;;;;5137953;27;20567;-74
2021/10/24 03:13:33;;;;;;;22.95;12.35;;;;;;;;;;5138277;27;20027;-74
2021/10/24 03:15:59;;;;;;;21.88;11.75;;;;;;;;;;5132327;27;20039;-74
2021/10/24 03:18:26;;;;;;;18.13;11.20;;;;;;;;;;5133054;27;20033;-74
2021/10/24 03:20:52;;;;;;;26.88;11.82;;;;;;;;;;5135851;27;20026;-74
2021/10/24 03:23:18;;;;;;;19.13;11.57;;;;;;;;;;5137183;27;20046;-74
2021/10/24 03:25:44;;;;;;;19.48;11.20;;;;;;;;;;5135679;27;20114;-74
2021/10/24 03:28:11;;;;;;;25.10;10.63;;;;;;;;;;5136041;27;20231;-74
2021/10/24 03:30:37;;;;;;;19.08;10.23;;;;;;;;;;5135404;27;20031;-73
2021/10/24 03:33:03;;;;;;;19.27;11.88;;;;;;;;;;5138412;27;20030;-74
2021/10/24 03:35:29;;;;;;;21.80;12.68;;;;;;;;;;5134826;27;20037;-73
2021/10/24 03:37:56;;;;;;;19.63;11.82;;;;;;;;;;5134355;27;20125;-74
2021/10/24 03:40:22;;;;;;;19.52;11.57;;;;;;;;;;5138901;27;20023;-74
2021/10/24 03:42:48;;;;;;;23.33;12.00;;;;;;;;;;5134707;27;20099;-73
2021/10/24 03:45:14;;;;;;;27.95;11.68;;;;;;;;;;5138521;27;20434;-73
2021/10/24 03:47:40;;;;;;;23.23;11.55;;;;;;;;;;5132150;27;20035;-74
2021/10/24 03:50:07;;;;;;;21.13;11.27;;;;;;;;;;5141205;27;20248;-74
2021/10/24 03:52:33;;;;;;;20.02;10.65;;;;;;;;;;5134695;27;20130;-74
2021/10/24 03:54:59;;;;;;;15.95;10.38;;;;;;;;;;5137707;27;20505;-74
2021/10/24 03:57:26;;;;;;;21.40;11.05;;;;;;;;;;5137275;27;20030;-73
2021/10/24 03:59:52;;;;;;;20.58;10.25;;;;;;;;;;5129895;27;20039;-74
2021/10/24 04:02:18;;;;;;;19.17;10.88;;;;;;;;;;5139109;27;20424;-74
2021/10/24 04:04:44;;;;;;;19.92;11.40;;;;;;;;;;5132303;27;20140;-74
2021/10/24 04:07:11;;;;;;;19.65;10.98;;;;;;;;;;5139781;27;20037;-74
2021/10/24 04:09:37;;;;;;;16.60;10.07;;;;;;;;;;5132650;27;20312;-73
2021/10/24 04:12:04;;;;;;;19.33;10.85;;;;;;;;;;5133584;27;20569;-74
2021/10/24 04:14:30;;;;;;;21.85;11.00;;;;;;;;;;5132382;27;20470;-74
2021/10/24 04:16:56;;;;;;;15.63;10.63;;;;;;;;;;5138250;27;20019;-74
2021/10/24 04:19:22;;;;;;;16.88;10.02;;;;;;;;;;5136652;27;20029;-74
2021/10/24 04:21:48;;;;;;;15.95;10.65;;;;;;;;;;5136154;27;20102;-73
2021/10/24 04:24:14;;;;;;;17.88;11.25;;;;;;;;;;5136627;27;20064;-74
2021/10/24 04:26:41;;;;;;;18.55;10.80;;;;;;;;;;5131282;27;20029;-74
2021/10/24 04:29:07;;;;;;;20.17;11.07;;;;;;;;;;5136380;27;20042;-73
2021/10/24 04:31:33;;;;;;;20.95;10.85;;;;;;;;;;5134853;27;20018;-73
2021/10/24 04:33:59;;;;;;;25.27;10.80;;;;;;;;;;5135091;27;20391;-74
2021/10/24 04:36:26;;;;;;;22.05;11.93;;;;;;;;;;5136239;27;20030;-73
2021/10/24 04:38:52;;;;;;;20.77;11.40;;;;;;;;;;5136475;27;20542;-74
2021/10/24 04:41:18;;;;;;;18.58;11.07;;;;;;;;;;5134039;27;20072;-74
2021/10/24 04:43:44;;;;;;;27.23;12.88;;;;;;;;;;5134818;27;20038;-73
2021/10/24 04:46:10;;;;;;;26.73;12.13;;;;;;;;;;5133788;27;20346;-74
2021/10/24 04:48:36;;;;;;;22.77;12.98;;;;;;;;;;5136800;27;20858;-73
2021/10/24 04:51:03;;;;;;;17.30;12.25;;;;;;;;;;5135322;27;20054;-74
2021/10/24 04:53:29;;;;;;;18.80;11.55;;;;;;;;;;5134070;27;20023;-74
2021/10/24 04:55:56;;;;;;;17.23;11.45;;;;;;;;;;5137290;27;20479;-74
2021/10/24 04:58:22;;;;;;;19.65;11.40;;;;;;;;;;5135540;27;20113;-74
2021/10/24 05:00:48;;;;;;;25.23;12.27;;;;;;;;;;5133832;27;20065;-74
2021/10/24 05:03:14;;;;;;;18.63;10.82;;;;;;;;;;5134047;27;20065;-74
2021/10/24 05:05:40;;;;;;;18.35;11.27;;;;;;;;;;5134070;27;20037;-74
2021/10/24 05:08:06;;;;;;;17.15;11.35;;;;;;;;;;5135444;27;20047;-74
2021/10/24 05:10:33;;;;;;;19.90;11.48;;;;;;;;;;5133198;27;20023;-74
2021/10/24 05:12:59;;;;;;;19.55;10.68;;;;;;;;;;5135219;27;20030;-73
2021/10/24 05:15:25;;;;;;;21.30;12.20;;;;;;;;;;5134685;27;20027;-74
2021/10/24 05:17:51;;;;;;;20.08;10.93;;;;;;;;;;5133743;27;20011;-74
2021/10/24 05:20:17;;;;;;;18.55;10.77;;;;;;;;;;5133577;27;20038;-73
2021/10/24 05:22:44;;;;;;;13.38;9.25;;;;;;;;;;5137803;27;20457;-74
2021/10/24 05:25:10;;;;;;;15.90;9.63;;;;;;;;;;5133273;27;20382;-74
2021/10/24 05:27:36;;;;;;;15.90;10.55;;;;;;;;;;5134743;27;20066;-74
2021/10/24 05:30:02;;;;;;;19.80;10.35;;;;;;;;;;5132023;27;20117;-73
2021/10/24 05:32:29;;;;;;;17.75;9.35;;;;;;;;;;5133296;27;20474;-74
2021/10/24 05:34:55;;;;;;;17.27;10.38;;;;;;;;;;5135156;27;20415;-73
2021/10/24 05:37:21;;;;;;;19.13;10.13;;;;;;;;;;5134950;27;20575;-73
2021/10/24 05:39:48;;;;;;;17.20;10.35;;;;;;;;;;5134452;27;20042;-74
2021/10/24 05:42:14;;;;;;;17.85;10.02;;;;;;;;;;5132670;27;20039;-74
2021/10/24 05:44:40;;;;;;;16.35;10.00;;;;;;;;;;5133830;27;20030;-74
2021/10/24 05:47:06;;;;;;;18.92;11.02;;;;;;;;;;5128448;27;20035;-74
2021/10/24 05:49:32;;;;;;;28.90;14.60;;;;;;;;;;5130665;27;20034;-74
2021/10/24 05:51:58;;;;;;;20.85;13.70;;;;;;;;;;5128709;27;20080;-74
2021/10/24 05:54:25;;;;;;;18.23;11.95;;;;;;;;;;5132612;27;20035;-73
2021/10/24 05:56:51;;;;;;;19.30;10.98;;;;;;;;;;5135545;27;20026;-74
2021/10/24 05:59:17;;;;;;;17.27;10.80;;;;;;;;;;5133557;27;20513;-73
2021/10/24 06:01:44;;;;;;;15.02;9.88;;;;;;;;;;5133788;27;20360;-74
2021/10/24 06:04:10;;;;;;;14.93;9.73;;;;;;;;;;5135369;27;20066;-74
2021/10/24 06:06:36;;;;;;;17.33;11.15;;;;;;;;;;5134900;27;20035;-74
2021/10/24 06:09:03;;;;;;;15.23;9.63;;;;;;;;;;5134954;27;20273;-74
2021/10/24 06:11:35;;;;;;;14.77;9.95;;;;;;;;;;5130885;27;20027;-74
2021/10/24 06:14:01;;;;;;;14.95;10.02;;;;;;;;;;5134541;27;20030;-73
2021/10/24 06:16:28;;;;;;;12.95;9.57;;;;;;;;;;5132351;27;20394;-74
2021/10/24 06:18:54;;;;;;;15.05;9.85;;;;;;;;;;5131339;27;20425;-74
2021/10/24 06:21:20;;;;;;;14.07;9.63;;;;;;;;;;5134451;27;20058;-74
2021/10/24 06:23:46;;;;;;;17.52;8.90;;;;;;;;;;5131847;27;20023;-74
2021/10/24 06:26:12;;;;;;;14.48;9.00;;;;;;;;;;5130206;27;20382;-74
2021/10/24 06:28:39;;;;;;;19.10;9.70;;;;;;;;;;5134312;27;20031;-74
2021/10/24 06:31:05;;;;;;;14.55;9.73;;;;;;;;;;5132283;27;20027;-74
2021/10/24 06:33:31;;;;;;;14.90;9.18;;;;;;;;;;5134742;27;20054;-74
2021/10/24 06:35:57;;;;;;;12.38;8.90;;;;;;;;;;5133973;27;20285;-74
2021/10/24 06:38:23;;;;;;;17.10;9.88;;;;;;;;;;5139742;27;20029;-74
2021/10/24 06:40:49;;;;;;;20.30;9.38;;;;;;;;;;5136422;27;20057;-74
2021/10/24 06:43:16;;;;;;;16.42;9.57;;;;;;;;;;5135459;27;20556;-74
2021/10/24 06:45:44;;;;;;;15.68;9.70;;;;;;;;;;5133066;27;20722;-74
2021/10/24 06:48:10;;;;;;;22.67;13.48;;;;;;;;;;5132606;27;20749;-74
2021/10/24 06:50:36;;;;;;;22.25;13.88;;;;;;;;;;5132311;27;20114;-74
2021/10/24 06:53:02;;;;;;;25.35;14.50;;;;;;;;;;5137630;27;20031;-74
2021/10/24 06:55:29;;;;;;;22.38;12.68;;;;;;;;;;5137304;27;20023;-74
2021/10/24 06:57:56;;;;;;;18.05;11.40;;;;;;;;;;5134686;27;20031;-74
2021/10/24 07:00:23;;;;;;;15.57;9.27;;;;;;;;;;5127607;27;20051;-74
2021/10/24 07:02:50;;;;;;;20.73;11.30;;;;;;;;;;5136744;27;20502;-74
2021/10/24 07:05:17;;;;;;;18.23;9.98;;;;;;;;;;5133525;27;20034;-72
2021/10/24 07:07:43;;;;;;;17.05;10.30;;;;;;;;;;5137100;27;20027;-71
2021/10/24 07:10:10;;;;;;;15.35;10.63;;;;;;;;;;5133080;27;20423;-72
2021/10/24 07:12:37;;;;;;;20.70;10.25;;;;;;;;;;5139569;27;20102;-72
2021/10/24 07:15:06;;;;;;;15.18;11.25;;;;;;;;;;5133158;27;20027;-72
2021/10/24 07:17:33;;;;;;;28.27;12.18;;;;;;;;;;5130422;27;20034;-73
2021/10/24 07:19:59;;;;;;;22.23;11.98;;;;;;;;;;5130986;27;20482;-73
2021/10/24 07:22:25;;;;;;;23.10;12.68;;;;;;;;;;5126861;27;20191;-72
2021/10/24 07:24:51;;;;;;;25.65;13.18;;;;;;;;;;5124494;27;20627;-72
2021/10/24 07:27:18;;;;;;;22.33;12.35;;;;;;;;;;5127598;27;20629;-72
2021/10/24 07:29:44;;;;;;;23.98;13.50;;;;;;;;;;5127474;27;20066;-73
2021/10/24 07:32:10;;;;;;;23.60;13.85;;;;;;;;;;5128913;27;20075;-73
2021/10/24 07:34:36;;;;;;;20.48;12.10;;;;;;;;;;5130910;27;20023;-72
2021/10/24 07:37:03;;;;;;;20.02;11.88;;;;;;;;;;5130261;27;20026;-72
2021/10/24 07:39:29;;;;;;;21.58;11.85;;;;;;;;;;5134560;27;20551;-74
2021/10/24 07:41:56;;;;;;;15.57;10.73;;;;;;;;;;5129718;27;20057;-73
2021/10/24 07:44:23;;;;;;;22.13;11.38;;;;;;;;;;5135960;27;20110;-72
2021/10/24 07:46:53;;;;;;;23.10;12.60;;;;;;;;;;5131787;27;20023;-72
2021/10/24 07:49:20;;;;;;;26.80;11.75;;;;;;;;;;5133536;27;20035;-72
2021/10/24 07:51:46;;;;;;;23.63;11.20;;;;;;;;;;5127525;27;20068;-72
2021/10/24 07:54:13;;;;;;;13.95;9.13;;;;;;;;;;5136773;27;20055;-73
2021/10/24 07:56:39;;;;;;;20.92;10.25;;;;;;;;;;5131668;27;20019;-72
2021/10/24 07:59:05;;;;;;;19.88;10.20;;;;;;;;;;5132708;27;20023;-72
2021/10/24 08:01:32;;;;;;;19.08;10.20;;;;;;;;;;5136150;27;20561;-72
2021/10/24 08:03:58;;;;;;;17.95;9.40;;;;;;;;;;5137098;27;20038;-72
2021/10/24 08:06:24;;;;;;;15.73;8.77;;;;;;;;;;5123760;27;20023;-74
2021/10/24 08:08:52;;;;;;;19.15;10.23;;;;;;;;;;5125544;27;20046;-73
2021/10/24 08:11:18;;;;;;;18.50;9.85;;;;;;;;;;5131222;27;20503;-73
2021/10/24 08:13:45;;;;;;;15.10;10.38;;;;;;;;;;5132662;27;20026;-72
2021/10/24 08:16:12;;;;;;;17.90;9.63;;;;;;;;;;5130252;27;20506;-72
2021/10/24 08:18:38;;;;;;;17.98;9.50;;;;;;;;;;5135136;27;20045;-73
2021/10/24 08:21:04;;;;;;;18.83;10.05;;;;;;;;;;5131943;27;20098;-72
2021/10/24 08:23:31;;;;;;;16.88;9.32;;;;;;;;;;5134328;27;20058;-72
2021/10/24 08:25:57;;;;;;;15.98;9.25;;;;;;;;;;5131780;27;20066;-72
2021/10/24 08:28:23;;;;;;;22.70;9.88;;;;;;;;;;5132808;27;20023;-72
2021/10/24 08:30:52;;;;;;;18.60;10.27;;;;;;;;;;5134317;27;20018;-73
2021/10/24 08:33:18;;;;;;;16.08;10.30;;;;;;;;;;5135734;27;20031;-72
2021/10/24 08:35:44;;;;;;;17.63;9.95;;;;;;;;;;5131440;27;20023;-72
2021/10/24 08:38:11;;;;;;;18.05;10.20;;;;;;;;;;5133093;27;20106;-72
2021/10/24 08:40:43;;;;;;;19.98;10.43;;;;;;;;;;5134725;27;20019;-72
2021/10/24 08:43:17;;;;;;;17.67;10.10;;;;;;;;;;5132917;27;20076;-73
2021/10/24 08:45:44;;;;;;;16.20;10.43;;;;;;;;;;5131033;27;20015;-73
2021/10/24 08:48:11;;;;;;;15.30;9.48;;;;;;;;;;5132682;27;20114;-73
2021/10/24 08:50:37;;;;;;;18.33;9.57;;;;;;;;;;5133810;27;20033;-74
2021/10/24 08:53:06;;;;;;;20.73;9.77;;;;;;;;;;5131898;27;20468;-73
2021/10/24 08:55:32;;;;;;;17.08;10.45;;;;;;;;;;5135003;27;20022;-73
2021/10/24 08:57:59;;;;;;;12.43;9.75;;;;;;;;;;5127713;27;20550;-74
2021/10/24 09:00:25;;;;;;;14.18;9.32;;;;;;;;;;5134378;27;20042;-74
2021/10/24 09:02:59;;;;;;;12.77;9.05;;;;;;;;;;5130572;27;20426;-73
2021/10/24 09:05:40;;;;;;;20.73;9.43;;;;;;;;;;5130653;27;20054;-73
2021/10/24 09:08:07;;;;;;;15.65;9.00;;;;;;;;;;5131726;27;20471;-72
2021/10/24 09:10:38;;;;;;;19.83;10.23;;;;;;;;;;5137136;27;21632;-72
2021/10/24 09:13:08;;;;;;;24.90;9.93;;;;;;;;;;5137337;27;20037;-73
2021/10/24 09:15:52;;;;;;;16.60;9.98;;;;;;;;;;5132772;27;20521;-72
2021/10/24 09:18:19;;;;;;;15.80;9.60;;;;;;;;;;5132919;27;20470;-73
2021/10/24 09:20:46;;;;;;;21.35;8.70;;;;;;;;;;5129721;27;20042;-73
2021/10/24 09:23:13;;;;;;;22.58;10.13;;;;;;;;;;5131304;27;20031;-73
2021/10/24 09:25:50;;;;;;;11.18;8.13;;;;;;;;;;5136546;27;20817;-73
2021/10/24 09:28:20;;;;;;;17.30;8.65;;;;;;;;;;5135606;27;20115;-73
2021/10/24 09:30:46;;;;;;;15.73;8.40;;;;;;;;;;5134767;27;20023;-74
2021/10/24 09:33:14;;;;;;;12.43;8.52;;;;;;;;;;5134132;27;20023;-74
2021/10/24 09:35:44;;;;;;;13.73;8.70;;;;;;;;;;5135691;27;20022;-75
2021/10/24 09:38:18;;;;;;;16.47;9.60;;;;;;;;;;5127225;27;20050;-73
2021/10/24 09:40:49;;;;;;;14.38;8.60;;;;;;;;;;5127264;27;20023;-74
2021/10/24 09:43:18;;;;;;;20.50;9.82;;;;;;;;;;5133453;27;20030;-75
2021/10/24 09:45:46;;;;;;;17.50;9.27;;;;;;;;;;5132210;27;20011;-75
2021/10/24 09:48:14;;;;;;;17.85;9.63;;;;;;;;;;5128905;27;20974;-75
2021/10/24 09:50:42;;;;;;;21.40;9.68;;;;;;;;;;5132616;27;20109;-74
2021/10/24 09:53:14;;;;;;;19.52;10.75;;;;;;;;;;5130670;27;20114;-75
2021/10/24 09:55:42;;;;;;;21.80;9.68;;;;;;;;;;5128354;27;20814;-75
2021/10/24 09:58:09;;;;;;;18.15;9.63;;;;;;;;;;5131330;27;20031;-74
2021/10/24 10:00:35;;;;;;;25.45;10.65;;;;;;;;;;5132133;27;20042;-75
2021/10/24 10:03:03;;;;;;;24.27;10.85;;;;;;;;;;5133152;27;20034;-74
2021/10/24 10:05:29;;;;;;;22.75;11.30;;;;;;;;;;5129187;27;20031;-74
2021/10/24 10:07:56;;;;;;;24.90;11.15;;;;;;;;;;5129258;27;20023;-74
2021/10/24 10:10:23;;;;;;;19.25;11.23;;;;;;;;;;5131407;27;20054;-74
2021/10/24 10:12:51;;;;;;;30.63;11.35;;;;;;;;;;5129110;27;20104;-74
2021/10/24 10:15:19;;;;;;;22.15;10.15;;;;;;;;;;5131412;27;20060;-74
2021/10/24 10:17:46;;;;;;;18.98;10.20;;;;;;;;;;5130809;27;20042;-74
2021/10/24 10:20:26;;;;;;;23.73;11.02;;;;;;;;;;5129105;27;20100;-74
2021/10/24 10:23:09;;;;;;;22.23;9.43;;;;;;;;;;5130814;27;20079;-75
2021/10/24 10:25:39;;;;;;;19.35;9.20;;;;;;;;;;5129439;27;20110;-74
2021/10/24 10:28:06;;;;;;;20.33;9.18;;;;;;;;;;5131296;27;20390;-74
2021/10/24 10:30:32;;;;;;;21.52;9.70;;;;;;;;;;5131668;27;20162;-74
2021/10/24 10:33:00;;;;;;;24.08;9.45;;;;;;;;;;5130654;27;20034;-74
2021/10/24 10:35:29;;;;;;;21.83;9.73;;;;;;;;;;5131462;27;20080;-75
2021/10/24 10:38:03;;;;;;;18.95;9.57;;;;;;;;;;5131645;27;20375;-74
2021/10/24 10:40:37;;;;;;;20.30;8.85;;;;;;;;;;5131131;27;20103;-74
2021/10/24 10:43:13;;;;;;;21.90;10.15;;;;;;;;;;5128995;27;20027;-75
2021/10/24 10:45:40;;;;;;;20.27;8.98;;;;;;;;;;5131657;27;20102;-75
2021/10/24 10:48:08;;;;;;;35.70;13.23;;;;;;;;;;5129317;27;20316;-74
2021/10/24 10:50:43;;;;;;;31.00;12.23;;;;;;;;;;5130522;27;20016;-74
2021/10/24 10:53:10;;;;;;;20.55;9.88;;;;;;;;;;5129362;27;20029;-74
2021/10/24 10:55:55;;;;;;;26.98;10.35;;;;;;;;;;5133438;27;20015;-74
2021/10/24 10:58:51;;;;;;;26.52;9.73;;;;;;;;;;5133692;27;20243;-74
2021/10/24 11:01:39;;;;;;;26.02;12.32;;;;;;;;;;5119627;27;20086;-74
2021/10/24 11:04:08;;;;;;;22.20;10.27;;;;;;;;;;5131792;27;20115;-74
2021/10/24 11:06:34;;;;;;;23.17;9.35;;;;;;;;;;5130249;27;20016;-74
2021/10/24 11:09:05;;;;;;;20.65;9.40;;;;;;;;;;5132886;27;20105;-75
2021/10/24 11:11:40;;;;;;;26.17;10.47;;;;;;;;;;5132138;27;20020;-74
2021/10/24 11:14:12;;;;;;;26.60;9.77;;;;;;;;;;5128977;27;20024;-75
2021/10/24 11:16:38;;;;;;;22.60;9.68;;;;;;;;;;5130671;27;20542;-75
2021/10/24 11:19:23;;;;;;;21.85;10.30;;;;;;;;;;5133369;27;20230;-74
2021/10/24 11:21:50;;;;;;;17.42;9.48;;;;;;;;;;5133832;27;20110;-74
2021/10/24 11:24:17;;;;;;;18.35;9.00;;;;;;;;;;5133310;27;20078;-74
2021/10/24 11:26:44;;;;;;;17.67;8.32;;;;;;;;;;5135572;27;20068;-75
2021/10/24 11:29:10;;;;;;;22.00;8.90;;;;;;;;;;5140210;27;20026;-75
2021/10/24 11:31:36;;;;;;;22.52;10.27;;;;;;;;;;5134942;27;20109;-75
2021/10/24 11:34:04;;;;;;;27.45;10.90;;;;;;;;;;5135146;27;20227;-75
2021/10/24 11:36:31;;;;;;;21.85;11.27;;;;;;;;;;5133982;27;20015;-74
2021/10/24 11:38:57;;;;;;;33.35;13.23;;;;;;;;;;5136222;27;20023;-74
2021/10/24 11:41:24;;;;;;;22.38;11.68;;;;;;;;;;5133937;27;20023;-72
2021/10/24 11:43:51;;;;;;;29.65;10.68;;;;;;;;;;5135984;27;20383;-74
2021/10/24 11:46:17;;;;;;;27.30;10.65;;;;;;;;;;5135734;27;20534;-74
2021/10/24 11:48:43;;;;;;;21.15;9.93;;;;;;;;;;5135220;27;20089;-74
2021/10/24 11:51:11;;;;;;;25.27;10.25;;;;;;;;;;5128516;27;20019;-74
2021/10/24 11:53:44;;;;;;;22.17;9.57;;;;;;;;;;5136724;27;20079;-74
2021/10/24 12:01:30;;;;;;;26.77;11.95;;;;;;;;;;5133771;27;20487;-73
2021/10/24 12:03:58;;;;;;;26.83;10.32;;;;;;;;;;5141864;27;20670;-74
2021/10/24 12:06:43;;;;;;;28.23;10.43;;;;;;;;;;5135376;27;20110;-73
2021/10/24 12:09:13;;;;;;;20.73;9.55;;;;;;;;;;5133226;27;20075;-74
2021/10/24 12:11:43;;;;;;;20.25;10.15;;;;;;;;;;5138742;27;20010;-74
2021/10/24 12:14:13;;;;;;;21.77;8.88;;;;;;;;;;5137250;27;20018;-76
2021/10/24 12:16:40;;;;;;;22.60;9.25;;;;;;;;;;5134313;27;20087;-75
2021/10/24 12:19:19;;;;;;;16.88;8.75;;;;;;;;;;5135636;27;20069;-74
2021/10/24 12:22:05;;;;;;;21.58;8.65;;;;;;;;;;5136302;27;20051;-74
2021/10/24 12:24:41;;;;;;;28.77;8.90;;;;;;;;;;5138972;27;20027;-74
2021/10/24 12:27:08;;;;;;;27.00;8.63;;;;;;;;;;5134124;27;20023;-74
2021/10/24 12:29:35;;;;;;;18.58;8.77;;;;;;;;;;5139159;27;20379;-75
2021/10/24 12:32:06;;;;;;;25.00;9.25;;;;;;;;;;5139943;27;20023;-74
2021/10/24 12:34:33;;;;;;;27.17;9.10;;;;;;;;;;5134877;27;20474;-75
2021/10/24 12:36:59;;;;;;;20.38;9.00;;;;;;;;;;5137331;27;20043;-75
2021/10/24 12:39:26;;;;;;;18.85;8.70;;;;;;;;;;5135738;27;20517;-75
2021/10/24 12:41:52;;;;;;;22.80;9.30;;;;;;;;;;5140538;27;20523;-74
2021/10/24 12:44:24;;;;;;;23.90;10.07;;;;;;;;;;5135394;27;20133;-74
2021/10/24 12:46:51;;;;;;;21.33;9.43;;;;;;;;;;5141536;27;20027;-73
2021/10/24 12:49:22;;;;;;;20.33;9.43;;;;;;;;;;5133205;27;20509;-73
2021/10/24 12:52:08;;;;;;;32.60;8.75;;;;;;;;;;5135455;27;20031;-73
2021/10/24 12:54:34;;;;;;;17.77;8.25;;;;;;;;;;5137621;27;20035;-73
2021/10/24 12:57:01;;;;;;;26.67;9.57;;;;;;;;;;5138677;27;20019;-74
2021/10/24 12:59:27;;;;;;;13.77;7.90;;;;;;;;;;5135433;27;20109;-73
2021/10/24 13:01:54;;;;;;;22.42;9.02;;;;;;;;;;5135857;27;20030;-73
2021/10/24 13:04:21;;;;;;;17.48;8.23;;;;;;;;;;5136391;27;20114;-73
2021/10/24 13:06:47;;;;;;;19.85;8.85;;;;;;;;;;5132405;27;20494;-73
2021/10/24 13:09:13;;;;;;;17.30;8.93;;;;;;;;;;5139376;27;20086;-73
2021/10/24 13:11:39;;;;;;;15.95;9.32;;;;;;;;;;5134735;27;20026;-73
2021/10/24 13:14:07;;;;;;;17.98;9.05;;;;;;;;;;5137537;27;20109;-73
2021/10/24 13:16:33;;;;;;;20.77;9.98;;;;;;;;;;5135944;27;20019;-73
2021/10/24 13:18:59;;;;;;;14.27;8.27;;;;;;;;;;5138027;27;20095;-72
2021/10/24 13:24:01;;;;;;;13.68;6.97;;;;;;;;;;5131395;27;20083;-74
2021/10/24 13:26:28;;;;;;;17.65;8.38;;;;;;;;;;5135673;27;20368;-74
2021/10/24 13:28:54;;;;;;;19.25;8.63;;;;;;;;;;5130043;27;20027;-74
2021/10/24 13:31:20;;;;;;;21.15;9.65;;;;;;;;;;5133450;27;20046;-74
2021/10/24 13:33:47;;;;;;;23.17;9.18;;;;;;;;;;5127834;27;20510;-74
2021/10/24 13:36:13;;;;;;;18.83;8.23;;;;;;;;;;5133003;27;20615;-74
2021/10/24 13:38:39;;;;;;;16.35;8.50;;;;;;;;;;5136511;27;20031;-73
2021/10/24 13:41:05;;;;;;;17.23;8.40;;;;;;;;;;5129533;27;20082;-74
2021/10/24 13:43:31;;;;;;;22.13;9.13;;;;;;;;;;5135693;27;20399;-74
2021/10/24 13:45:57;;;;;;;17.88;8.75;;;;;;;;;;5128482;27;20489;-74
2021/10/24 13:48:24;;;;;;;19.98;9.15;;;;;;;;;;5132163;27;20019;-74
2021/10/24 13:50:50;;;;;;;18.40;9.30;;;;;;;;;;5128876;27;20023;-74
2021/10/24 13:53:16;;;;;;;17.42;8.25;;;;;;;;;;5136339;27;20261;-73
2021/10/24 13:55:43;;;;;;;17.85;8.80;;;;;;;;;;5130947;27;20034;-74
2021/10/24 13:58:09;;;;;;;25.20;10.30;;;;;;;;;;5137073;27;20031;-74
2021/10/24 14:00:35;;;;;;;22.25;8.65;;;;;;;;;;5127286;27;20047;-74
2021/10/24 14:03:03;;;;;;;26.92;9.63;;;;;;;;;;5130741;27;20039;-74
2021/10/24 14:05:33;;;;;;;18.98;9.40;;;;;;;;;;5132886;27;20022;-74
2021/10/24 14:08:00;;;;;;;25.92;10.60;;;;;;;;;;5135730;27;20022;-74
2021/10/24 14:10:27;;;;;;;20.25;9.57;;;;;;;;;;5131712;27;20639;-74
2021/10/24 14:12:53;;;;;;;23.60;9.98;;;;;;;;;;5134121;27;20777;-74
2021/10/24 14:15:20;;;;;;;24.02;10.18;;;;;;;;;;5129757;27;20023;-74
2021/10/24 14:17:47;;;;;;;22.23;9.68;;;;;;;;;;5134545;27;20109;-74
2021/10/24 14:20:14;;;;;;;24.17;9.65;;;;;;;;;;5131299;27;20026;-74
2021/10/24 14:22:40;;;;;;;27.02;9.30;;;;;;;;;;5137306;27;20486;-74
2021/10/24 14:25:07;;;;;;;22.75;8.80;;;;;;;;;;5127613;27;20022;-74
2021/10/24 14:27:33;;;;;;;25.08;9.95;;;;;;;;;;5135706;27;20505;-75
2021/10/24 14:30:00;;;;;;;16.27;8.63;;;;;;;;;;5132806;27;20029;-74
2021/10/24 14:32:26;;;;;;;21.25;9.73;;;;;;;;;;5135873;27;20027;-74